Time;durP1;ratioP1;P1;durP2;ratioP2;P2;SDS_P1;SDS_P2;PMS_P1;PMS_P2;Temp;Humidity;BMP_temperature;BMP_pressure;BME280_temperature;BME280_humidity;BME280_pressure;Samples;Min_cycle;Max_cycle;Signal;HPM_P1;HPM_P2
2021/12/27 00:00:38;;;;;;;34.87;20.83;;;2.20;99.90;;;;;;4837924;29;20048;-77
2021/12/27 00:03:06;;;;;;;33.63;19.27;;;2.20;99.90;;;;;;4808137;29;20033;-77
2021/12/27 00:05:32;;;;;;;30.37;18.40;;;2.20;99.90;;;;;;4833497;29;20053;-78
2021/12/27 00:07:59;;;;;;;25.47;16.83;;;2.20;99.90;;;;;;4839244;29;20061;-77
2021/12/27 00:10:27;;;;;;;35.43;21.47;;;2.20;99.90;;;;;;4856833;29;20040;-77
2021/12/27 00:12:54;;;;;;;32.30;18.53;;;2.30;99.90;;;;;;4848913;29;20049;-77
2021/12/27 00:15:21;;;;;;;31.27;19.97;;;2.30;99.90;;;;;;4819513;29;20037;-77
2021/12/27 00:17:48;;;;;;;26.43;17.87;;;2.20;99.90;;;;;;4825858;29;20022;-77
2021/12/27 00:20:16;;;;;;;27.43;16.33;;;2.30;99.90;;;;;;4823226;29;20037;-76
2021/12/27 00:22:45;;;;;;;26.80;18.07;;;2.30;99.90;;;;;;4834722;29;20512;-77
2021/12/27 00:25:13;;;;;;;30.03;16.50;;;2.30;99.90;;;;;;4832295;29;20041;-77
2021/12/27 00:27:41;;;;;;;27.57;18.97;;;2.30;99.90;;;;;;4819332;29;20042;-77
2021/12/27 00:30:09;;;;;;;41.03;25.13;;;2.30;99.90;;;;;;4821421;29;20029;-76
2021/12/27 00:32:37;;;;;;;34.30;21.27;;;2.30;99.90;;;;;;4852222;29;20033;-77
2021/12/27 00:35:05;;;;;;;28.33;18.60;;;2.30;99.90;;;;;;4852035;29;20033;-77
2021/12/27 00:37:31;;;;;;;33.07;21.37;;;2.30;99.90;;;;;;4822434;29;20037;-77
2021/12/27 00:39:58;;;;;;;31.20;18.77;;;2.20;99.90;;;;;;4821962;29;20025;-77
2021/12/27 00:42:25;;;;;;;31.40;19.47;;;2.30;99.90;;;;;;4802487;29;20059;-77
2021/12/27 00:44:51;;;;;;;34.93;19.03;;;2.30;99.90;;;;;;4834591;29;20045;-78
2021/12/27 00:47:18;;;;;;;28.13;17.27;;;2.30;99.90;;;;;;4820083;29;20041;-78
2021/12/27 00:49:44;;;;;;;29.80;19.47;;;2.30;99.90;;;;;;4837205;29;20041;-77
2021/12/27 00:52:32;;;;;;;30.13;18.97;;;2.40;99.90;;;;;;4826267;29;20036;-78
2021/12/27 00:54:59;;;;;;;30.70;19.57;;;2.30;99.90;;;;;;4853044;29;20009;-77
2021/12/27 00:57:26;;;;;;;30.37;19.40;;;2.40;99.90;;;;;;4838472;29;20064;-77
2021/12/27 00:59:52;;;;;;;37.50;22.83;;;2.40;99.90;;;;;;4837302;29;20087;-76
2021/12/27 01:02:19;;;;;;;29.37;17.70;;;2.40;99.90;;;;;;4834625;29;20669;-77
2021/12/27 01:04:45;;;;;;;35.37;20.80;;;2.40;99.90;;;;;;4837716;29;20041;-77
2021/12/27 01:07:12;;;;;;;28.97;16.67;;;2.40;99.90;;;;;;4838571;29;20037;-77
2021/12/27 01:10:03;;;;;;;28.10;16.97;;;2.40;99.90;;;;;;4853110;29;20033;-77
2021/12/27 01:12:46;;;;;;;26.17;15.97;;;2.40;99.90;;;;;;4839989;29;20037;-78
2021/12/27 01:17:45;;;;;;;26.87;16.63;;;2.50;99.90;;;;;;4838279;29;20041;-78
2021/12/27 01:20:16;;;;;;;28.53;18.97;;;2.50;99.90;;;;;;4838662;29;20042;-77
2021/12/27 01:22:42;;;;;;;29.33;17.43;;;2.50;99.90;;;;;;4845517;29;20037;-77
2021/12/27 01:25:10;;;;;;;28.63;18.03;;;2.50;99.90;;;;;;4854138;29;20041;-78
2021/12/27 01:27:36;;;;;;;28.70;17.30;;;2.50;99.90;;;;;;4826218;29;20036;-77
2021/12/27 01:30:06;;;;;;;27.80;17.63;;;2.50;99.90;;;;;;4840489;29;20111;-78
2021/12/27 01:32:37;;;;;;;30.60;18.13;;;2.50;99.90;;;;;;4851015;29;20017;-77
2021/12/27 01:35:04;;;;;;;31.43;19.87;;;2.50;99.90;;;;;;4804941;29;20506;-77
2021/12/27 01:37:31;;;;;;;29.53;18.27;;;2.50;99.90;;;;;;4854399;29;20516;-77
2021/12/27 01:40:00;;;;;;;27.93;17.53;;;2.50;99.90;;;;;;4823867;29;20369;-77
2021/12/27 01:42:29;;;;;;;26.77;17.37;;;2.50;99.90;;;;;;4837377;29;20056;-77
2021/12/27 01:44:56;;;;;;;28.10;17.70;;;2.50;99.90;;;;;;4837926;29;20072;-77
2021/12/27 01:47:22;;;;;;;26.93;17.23;;;2.50;99.90;;;;;;4854260;29;20501;-78
2021/12/27 01:49:49;;;;;;;30.27;16.43;;;2.50;99.90;;;;;;4849550;29;20065;-78
2021/12/27 01:52:16;;;;;;;26.47;16.77;;;2.50;99.90;;;;;;4829451;29;20045;-77
2021/12/27 01:54:43;;;;;;;28.97;17.77;;;2.50;99.90;;;;;;4847633;29;20428;-77
2021/12/27 01:57:11;;;;;;;26.47;16.27;;;2.60;99.90;;;;;;4846691;29;20050;-78
2021/12/27 01:59:38;;;;;;;27.33;17.13;;;2.50;99.90;;;;;;4850189;29;20040;-78
2021/12/27 02:02:04;;;;;;;22.03;14.93;;;2.60;99.90;;;;;;4848618;29;20033;-78
2021/12/27 02:04:31;;;;;;;27.20;16.73;;;2.60;99.90;;;;;;4848376;29;20040;-78
2021/12/27 02:06:57;;;;;;;29.73;19.00;;;2.60;99.90;;;;;;4857430;29;20121;-78
2021/12/27 02:09:33;;;;;;;28.30;17.57;;;2.60;99.90;;;;;;4849067;29;20045;-78
2021/12/27 02:11:59;;;;;;;22.60;14.93;;;2.60;99.90;;;;;;4849822;29;20054;-78
2021/12/27 02:14:26;;;;;;;29.90;18.43;;;2.60;99.90;;;;;;4847590;29;20037;-78
2021/12/27 02:16:52;;;;;;;28.37;17.17;;;2.60;99.90;;;;;;4841715;29;20396;-78
2021/12/27 02:19:19;;;;;;;29.47;16.87;;;2.60;99.90;;;;;;4870670;29;20048;-78
2021/12/27 02:21:45;;;;;;;27.03;16.93;;;2.60;99.90;;;;;;4835065;29;20025;-78
2021/12/27 02:24:12;;;;;;;31.53;18.17;;;2.60;99.90;;;;;;4857955;29;20041;-78
2021/12/27 02:26:40;;;;;;;27.17;17.50;;;2.60;99.90;;;;;;4864801;29;20033;-78
2021/12/27 02:29:09;;;;;;;29.07;17.50;;;2.60;99.90;;;;;;4868578;29;20044;-78
2021/12/27 02:31:39;;;;;;;29.00;17.57;;;2.60;99.90;;;;;;4836347;29;20049;-78
2021/12/27 02:34:08;;;;;;;34.43;20.87;;;2.60;99.90;;;;;;4850395;29;20037;-78
2021/12/27 02:36:34;;;;;;;22.73;15.47;;;2.70;99.90;;;;;;4854657;29;20344;-78
2021/12/27 02:39:01;;;;;;;27.40;17.53;;;2.60;99.90;;;;;;4838263;29;20045;-78
2021/12/27 02:41:27;;;;;;;30.10;19.63;;;2.70;99.90;;;;;;4852570;29;20032;-78
2021/12/27 02:43:54;;;;;;;29.27;17.40;;;2.70;99.90;;;;;;4839064;29;20067;-78
2021/12/27 02:46:20;;;;;;;30.03;17.73;;;2.70;99.90;;;;;;4849502;29;20037;-78
2021/12/27 02:48:50;;;;;;;26.27;16.33;;;2.70;99.90;;;;;;4826810;29;20060;-78
2021/12/27 02:51:18;;;;;;;24.93;16.13;;;2.70;99.90;;;;;;4866998;29;20060;-78
2021/12/27 02:53:46;;;;;;;20.73;13.77;;;2.70;99.90;;;;;;4849965;29;20048;-78
2021/12/27 02:56:13;;;;;;;24.00;15.03;;;2.80;99.90;;;;;;4847378;29;20044;-78
2021/12/27 02:58:40;;;;;;;27.87;18.30;;;2.80;99.90;;;;;;4838177;29;20044;-79
2021/12/27 03:01:13;;;;;;;24.83;15.30;;;2.80;99.90;;;;;;4836185;29;20060;-78
2021/12/27 03:03:40;;;;;;;24.83;15.83;;;2.80;99.90;;;;;;4846582;29;20048;-78
2021/12/27 03:06:07;;;;;;;21.70;14.37;;;2.80;99.90;;;;;;4854418;29;20049;-78
2021/12/27 03:08:35;;;;;;;22.87;14.40;;;2.80;99.90;;;;;;4839889;29;20057;-78
2021/12/27 03:11:04;;;;;;;24.73;15.67;;;2.80;99.90;;;;;;4849911;29;20716;-78
2021/12/27 03:13:34;;;;;;;25.83;14.93;;;2.90;99.90;;;;;;4836981;29;20390;-78
2021/12/27 03:16:06;;;;;;;25.57;15.63;;;2.90;99.90;;;;;;4864244;29;20036;-78
2021/12/27 03:18:35;;;;;;;21.48;12.25;;;2.90;99.90;;;;;;4854629;29;20045;-79
2021/12/27 03:21:02;;;;;;;21.90;14.67;;;2.90;99.90;;;;;;4850380;29;20044;-78
2021/12/27 03:23:28;;;;;;;22.23;14.03;;;2.90;99.90;;;;;;4850168;29;20033;-79
2021/12/27 03:25:55;;;;;;;23.07;14.33;;;2.90;99.90;;;;;;4849958;29;20044;-78
2021/12/27 03:28:28;;;;;;;24.47;15.40;;;2.90;99.90;;;;;;4864167;29;20394;-78
2021/12/27 03:30:57;;;;;;;28.73;15.23;;;3.00;99.90;;;;;;4862338;29;20392;-78
2021/12/27 03:33:25;;;;;;;24.20;14.70;;;3.00;99.90;;;;;;4865725;29;20092;-78
2021/12/27 03:36:03;;;;;;;23.43;14.60;;;3.00;99.90;;;;;;4865446;29;20491;-78
2021/12/27 03:38:33;;;;;;;27.90;17.27;;;3.00;99.90;;;;;;4839149;29;20025;-78
2021/12/27 03:41:00;;;;;;;25.37;16.27;;;3.00;99.90;;;;;;4863828;29;20390;-78
2021/12/27 03:43:27;;;;;;;29.37;16.33;;;3.00;99.90;;;;;;4846851;29;20401;-78
2021/12/27 03:45:53;;;;;;;27.53;15.90;;;3.00;99.90;;;;;;4849777;29;20052;-78
2021/12/27 03:48:20;;;;;;;27.37;17.33;;;3.00;99.90;;;;;;4838234;29;20048;-77
2021/12/27 03:50:46;;;;;;;26.50;16.10;;;3.00;99.90;;;;;;4850982;29;20048;-78
2021/12/27 03:53:13;;;;;;;35.73;20.43;;;3.00;99.90;;;;;;4849102;29;20390;-77
2021/12/27 03:55:39;;;;;;;45.40;23.07;;;3.00;99.90;;;;;;4859533;29;20051;-77
2021/12/27 03:58:08;;;;;;;34.47;19.10;;;3.10;99.90;;;;;;4866950;29;20044;-77
2021/12/27 04:03:27;;;;;;;23.83;15.43;;;3.10;99.90;;;;;;4864967;29;20030;-77
2021/12/27 04:05:53;;;;;;;30.30;16.83;;;3.00;99.90;;;;;;4831761;29;20037;-78
2021/12/27 04:08:21;;;;;;;27.57;16.83;;;3.10;99.90;;;;;;4868327;29;20053;-78
2021/12/27 04:10:49;;;;;;;34.23;18.20;;;3.10;99.90;;;;;;4850490;29;20489;-77
2021/12/27 04:13:18;;;;;;;30.70;17.77;;;3.10;99.90;;;;;;4849281;29;20029;-78
2021/12/27 04:15:45;;;;;;;39.27;20.93;;;3.10;99.90;;;;;;4852719;29;20025;-78
2021/12/27 04:18:11;;;;;;;33.70;19.60;;;3.10;99.90;;;;;;4866548;29;20033;-78
2021/12/27 04:20:38;;;;;;;36.87;19.87;;;3.10;99.90;;;;;;4835989;29;20389;-78
2021/12/27 04:23:06;;;;;;;33.00;17.70;;;3.10;99.90;;;;;;4847373;29;20493;-78
2021/12/27 04:25:32;;;;;;;33.10;19.43;;;3.10;99.90;;;;;;4845850;29;20045;-77
2021/12/27 04:27:59;;;;;;;29.90;15.40;;;3.10;99.90;;;;;;4832954;29;20865;-78
2021/12/27 04:30:26;;;;;;;34.90;17.13;;;3.10;99.90;;;;;;4864728;29;20512;-77
2021/12/27 04:32:55;;;;;;;37.97;16.50;;;3.20;99.90;;;;;;4862606;29;20036;-78
2021/12/27 04:35:21;;;;;;;40.10;17.23;;;3.20;99.90;;;;;;4823807;29;20045;-78
2021/12/27 04:37:48;;;;;;;45.50;22.37;;;3.20;99.90;;;;;;4823153;29;20042;-78
2021/12/27 04:40:17;;;;;;;37.90;18.50;;;3.20;99.90;;;;;;4832998;29;20107;-78
2021/12/27 04:42:50;;;;;;;52.83;22.03;;;3.20;99.90;;;;;;4827019;29;20382;-78
2021/12/27 04:45:17;;;;;;;36.50;18.80;;;3.20;99.90;;;;;;4847468;29;20034;-78
2021/12/27 04:47:44;;;;;;;34.67;17.67;;;3.20;99.90;;;;;;4841307;29;20040;-78
2021/12/27 04:50:11;;;;;;;46.13;21.23;;;3.20;99.90;;;;;;4863628;29;20060;-78
2021/12/27 04:52:38;;;;;;;37.80;18.30;;;3.20;99.90;;;;;;4861131;29;20040;-78
2021/12/27 04:55:05;;;;;;;34.90;17.00;;;3.20;99.90;;;;;;4849191;29;20049;-78
2021/12/27 04:57:32;;;;;;;29.70;15.40;;;3.30;99.90;;;;;;4852704;29;20385;-78
2021/12/27 04:59:59;;;;;;;34.20;18.07;;;3.30;99.90;;;;;;4846133;29;20037;-78
2021/12/27 05:02:26;;;;;;;38.43;17.63;;;3.30;99.90;;;;;;4863834;29;20053;-78
2021/12/27 05:04:53;;;;;;;30.40;16.90;;;3.30;99.90;;;;;;4829541;29;20461;-78
2021/12/27 05:07:20;;;;;;;34.40;18.97;;;3.30;99.90;;;;;;4849292;29;20032;-78
2021/12/27 05:09:47;;;;;;;29.47;16.73;;;3.30;99.90;;;;;;4831530;29;20036;-78
2021/12/27 05:12:13;;;;;;;31.23;17.20;;;3.40;99.90;;;;;;4844437;29;20421;-78
2021/12/27 05:14:40;;;;;;;37.97;19.27;;;3.40;99.90;;;;;;4838526;29;20478;-78
2021/12/27 05:17:08;;;;;;;36.47;18.37;;;3.40;99.90;;;;;;4836377;29;20479;-78
2021/12/27 05:19:35;;;;;;;40.57;19.57;;;3.40;99.90;;;;;;4822752;29;20505;-78
2021/12/27 05:22:02;;;;;;;39.73;20.57;;;3.40;99.90;;;;;;4817561;29;21104;-78
2021/12/27 05:24:28;;;;;;;37.23;19.23;;;3.40;99.90;;;;;;4833869;29;20037;-78
2021/12/27 05:26:55;;;;;;;42.43;18.80;;;3.40;99.90;;;;;;4870433;29;20041;-78
2021/12/27 05:29:22;;;;;;;31.37;16.97;;;3.40;99.90;;;;;;4831291;29;20092;-78
2021/12/27 05:31:49;;;;;;;31.30;17.70;;;3.40;99.90;;;;;;4832621;29;20651;-78
2021/12/27 05:34:16;;;;;;;29.97;17.63;;;3.40;99.90;;;;;;4856973;29;20501;-78
2021/12/27 05:36:44;;;;;;;29.27;16.80;;;3.50;99.90;;;;;;4853002;29;20045;-78
2021/12/27 05:39:12;;;;;;;31.77;15.23;;;3.50;99.90;;;;;;4861327;29;20025;-78
2021/12/27 05:41:39;;;;;;;30.80;16.13;;;3.50;99.90;;;;;;4848408;29;20607;-79
2021/12/27 05:44:05;;;;;;;29.80;15.20;;;3.50;99.90;;;;;;4834111;29;20504;-78
2021/12/27 05:46:32;;;;;;;30.67;16.47;;;3.50;99.90;;;;;;4849832;29;20036;-78
2021/12/27 05:48:58;;;;;;;31.43;16.60;;;3.60;99.90;;;;;;4851660;29;20045;-78
2021/12/27 05:51:25;;;;;;;35.80;17.23;;;3.60;99.90;;;;;;4860787;29;20393;-78
2021/12/27 05:53:51;;;;;;;46.70;21.60;;;3.60;99.90;;;;;;4864996;29;20044;-78
2021/12/27 05:56:18;;;;;;;37.97;17.13;;;3.60;99.90;;;;;;4849446;29;20414;-78
2021/12/27 05:58:45;;;;;;;31.20;18.40;;;3.60;99.90;;;;;;4837187;29;20512;-79
2021/12/27 06:01:14;;;;;;;38.53;21.20;;;3.60;99.90;;;;;;4834768;29;20045;-78
2021/12/27 06:03:41;;;;;;;32.33;18.30;;;3.60;99.90;;;;;;4851224;29;20041;-78
2021/12/27 06:06:08;;;;;;;34.07;18.47;;;3.60;99.90;;;;;;4833768;29;20502;-78
2021/12/27 06:08:34;;;;;;;31.73;17.70;;;3.70;99.90;;;;;;4822837;29;20044;-79
2021/12/27 06:11:01;;;;;;;32.07;18.07;;;3.70;99.90;;;;;;4849654;29;20820;-78
2021/12/27 06:13:27;;;;;;;41.97;22.07;;;3.70;99.90;;;;;;4834355;29;20494;-78
2021/12/27 06:15:53;;;;;;;35.10;19.63;;;3.70;99.90;;;;;;4848468;29;20025;-78
2021/12/27 06:18:20;;;;;;;41.40;21.17;;;3.70;99.90;;;;;;4852387;29;20040;-78
2021/12/27 06:20:47;;;;;;;51.70;22.80;;;3.70;99.90;;;;;;4863019;29;20044;-78
2021/12/27 06:23:13;;;;;;;45.07;22.90;;;3.70;99.90;;;;;;4861350;29;20048;-79
2021/12/27 06:25:43;;;;;;;40.30;22.80;;;3.70;99.90;;;;;;4841287;29;20481;-78
2021/12/27 06:28:13;;;;;;;40.13;21.13;;;3.70;99.90;;;;;;4864570;29;20044;-78
2021/12/27 06:30:46;;;;;;;41.10;21.50;;;3.70;99.90;;;;;;4844582;29;20069;-78
2021/12/27 06:33:12;;;;;;;34.45;19.40;;;3.70;99.90;;;;;;4842877;29;20034;-78
2021/12/27 06:35:39;;;;;;;43.07;19.93;;;3.70;99.90;;;;;;4832777;29;20043;-78
2021/12/27 06:38:06;;;;;;;32.77;18.30;;;3.80;99.90;;;;;;4859862;29;20033;-78
2021/12/27 06:40:33;;;;;;;35.53;17.53;;;3.70;99.90;;;;;;4805064;29;20047;-79
2021/12/27 06:42:59;;;;;;;34.87;16.50;;;3.80;99.90;;;;;;4832341;29;20059;-78
2021/12/27 06:45:26;;;;;;;31.33;16.33;;;3.80;99.90;;;;;;4837213;29;20048;-79
2021/12/27 06:47:53;;;;;;;30.87;16.80;;;3.80;99.90;;;;;;4850818;29;20040;-79
2021/12/27 06:50:21;;;;;;;34.97;17.43;;;3.80;99.90;;;;;;4833828;29;20068;-79
2021/12/27 06:52:48;;;;;;;33.37;17.47;;;3.90;99.90;;;;;;4843826;29;20029;-79
2021/12/27 06:55:14;;;;;;;36.03;18.90;;;3.90;99.90;;;;;;4850193;29;20045;-80
2021/12/27 06:57:41;;;;;;;37.43;19.33;;;3.90;99.90;;;;;;4815725;29;20041;-79
2021/12/27 07:00:12;;;;;;;43.60;20.80;;;3.90;99.90;;;;;;4842355;29;20045;-79
2021/12/27 07:02:42;;;;;;;39.17;21.27;;;3.90;99.90;;;;;;4824839;29;20043;-79
2021/12/27 07:05:10;;;;;;;41.37;21.63;;;3.90;99.90;;;;;;4862667;29;20048;-79
2021/12/27 07:07:36;;;;;;;32.30;19.07;;;3.90;99.90;;;;;;4854588;29;20040;-79
2021/12/27 07:10:09;;;;;;;34.83;18.00;;;4.00;99.90;;;;;;4839918;29;20048;-78
2021/12/27 07:12:35;;;;;;;24.77;15.13;;;4.00;99.90;;;;;;4848833;29;20757;-78
2021/12/27 07:15:02;;;;;;;34.30;16.87;;;4.00;99.90;;;;;;4856794;29;20412;-78
2021/12/27 07:17:29;;;;;;;33.00;16.90;;;4.00;99.90;;;;;;4851801;29;20029;-79
2021/12/27 07:19:55;;;;;;;40.90;19.47;;;4.00;99.90;;;;;;4838652;29;20039;-78
2021/12/27 07:22:22;;;;;;;34.90;17.77;;;4.00;99.90;;;;;;4848417;29;20048;-80
2021/12/27 07:24:48;;;;;;;28.20;17.13;;;4.00;99.90;;;;;;4819944;29;20052;-81
2021/12/27 07:27:18;;;;;;;35.67;18.83;;;4.10;99.90;;;;;;4866444;29;20036;-86
2021/12/27 07:29:44;;;;;;;31.07;16.70;;;4.10;99.90;;;;;;4867965;29;20366;-82
2021/12/27 07:32:11;;;;;;;38.47;18.83;;;4.10;99.90;;;;;;4846728;29;20053;-81
2021/12/27 07:34:39;;;;;;;37.93;19.27;;;4.10;99.90;;;;;;4835205;29;20510;-82
2021/12/27 07:37:05;;;;;;;28.80;16.23;;;4.10;99.90;;;;;;4823682;29;20025;-82
2021/12/27 07:39:33;;;;;;;36.10;17.87;;;4.10;99.90;;;;;;4857843;29;20385;-85
2021/12/27 07:41:59;;;;;;;32.07;17.73;;;4.10;99.90;;;;;;4818005;29;20054;-80
2021/12/27 07:44:26;;;;;;;32.53;17.30;;;4.10;99.90;;;;;;4834531;29;20041;-80
2021/12/27 07:46:54;;;;;;;34.50;16.40;;;4.10;99.90;;;;;;4830907;29;20026;-79
2021/12/27 07:49:21;;;;;;;28.00;17.60;;;4.10;99.90;;;;;;4847288;29;20469;-80
2021/12/27 07:51:48;;;;;;;38.85;19.60;;;4.10;99.90;;;;;;4851772;29;20056;-80
2021/12/27 07:54:14;;;;;;;40.67;20.07;;;4.10;99.90;;;;;;4836019;29;20040;-79
2021/12/27 07:56:41;;;;;;;39.38;20.42;;;4.10;99.90;;;;;;4811671;29;20377;-80
2021/12/27 07:59:09;;;;;;;38.03;17.97;;;4.10;99.90;;;;;;4834596;29;20049;-80
2021/12/27 08:01:38;;;;;;;35.13;18.10;;;4.10;99.90;;;;;;4833846;29;20049;-80
2021/12/27 08:04:06;;;;;;;34.83;17.43;;;4.10;99.90;;;;;;4869577;29;20055;-80
2021/12/27 08:06:32;;;;;;;31.03;15.30;;;4.10;99.90;;;;;;4864494;29;20858;-80
2021/12/27 08:08:59;;;;;;;29.50;17.13;;;4.20;99.90;;;;;;4856159;29;20088;-80
2021/12/27 08:11:26;;;;;;;26.50;16.23;;;4.20;99.90;;;;;;4866259;29;20045;-79
2021/12/27 08:13:53;;;;;;;40.40;20.87;;;4.20;99.90;;;;;;4850984;29;20033;-80
2021/12/27 08:16:24;;;;;;;31.47;18.33;;;4.20;99.90;;;;;;4853666;29;20032;-80
2021/12/27 08:18:57;;;;;;;27.17;17.87;;;4.20;99.90;;;;;;4864950;29;20045;-80
2021/12/27 08:21:25;;;;;;;26.00;17.33;;;4.30;99.90;;;;;;4838273;29;20060;-80
2021/12/27 08:23:53;;;;;;;32.93;18.23;;;4.30;99.90;;;;;;4860800;29;20033;-80
2021/12/27 08:26:19;;;;;;;27.93;17.30;;;4.30;99.90;;;;;;4846955;29;20045;-80
2021/12/27 08:28:56;;;;;;;37.90;20.20;;;4.30;99.90;;;;;;4856361;29;20453;-80
2021/12/27 08:31:25;;;;;;;31.60;18.27;;;4.30;99.90;;;;;;4864101;29;20396;-79
2021/12/27 08:33:52;;;;;;;31.40;19.37;;;4.40;99.90;;;;;;4834447;29;20047;-79
2021/12/27 08:36:19;;;;;;;29.20;17.77;;;4.40;99.90;;;;;;4850776;29;20045;-79
2021/12/27 08:38:50;;;;;;;22.03;13.10;;;4.40;99.90;;;;;;4849126;29;20045;-79
2021/12/27 08:41:17;;;;;;;25.93;15.73;;;4.40;99.90;;;;;;4839665;29;20037;-79
2021/12/27 08:43:45;;;;;;;30.67;17.50;;;4.50;99.90;;;;;;4847227;29;20041;-80
2021/12/27 08:46:12;;;;;;;28.00;16.53;;;4.50;99.90;;;;;;4837075;29;20041;-79
2021/12/27 08:48:40;;;;;;;26.93;16.47;;;4.60;99.90;;;;;;4861278;29;20044;-79
2021/12/27 08:51:06;;;;;;;30.47;18.00;;;4.60;99.90;;;;;;4854913;29;20409;-80
2021/12/27 08:53:33;;;;;;;30.27;18.80;;;4.60;99.90;;;;;;4825499;29;20033;-79
2021/12/27 08:55:59;;;;;;;24.80;16.43;;;4.60;99.90;;;;;;4819900;29;20111;-81
2021/12/27 08:58:26;;;;;;;29.73;17.70;;;4.60;99.90;;;;;;4851026;29;20042;-81
2021/12/27 09:00:54;;;;;;;30.90;17.60;;;4.70;99.90;;;;;;4850216;29;20607;-83
2021/12/27 09:03:22;;;;;;;32.28;18.45;;;4.70;99.90;;;;;;4867156;29;20045;-81
2021/12/27 09:05:49;;;;;;;31.65;19.17;;;4.70;99.90;;;;;;4846899;29;20037;-81
2021/12/27 09:08:15;;;;;;;32.63;18.03;;;4.70;99.90;;;;;;4835098;29;20131;-82
2021/12/27 09:10:42;;;;;;;30.20;18.03;;;4.70;99.90;;;;;;4846369;29;20041;-81
2021/12/27 09:13:09;;;;;;;27.57;16.23;;;4.70;99.90;;;;;;4823003;29;20029;-83
2021/12/27 09:15:38;;;;;;;32.17;18.88;;;4.80;99.90;;;;;;4837428;29;20682;-82
2021/12/27 09:18:05;;;;;;;28.02;17.35;;;4.80;99.90;;;;;;4840169;29;20509;-81
2021/12/27 09:20:32;;;;;;;29.27;18.60;;;4.90;99.90;;;;;;4844591;29;20032;-82
2021/12/27 09:22:58;;;;;;;26.63;17.80;;;4.90;99.90;;;;;;4843871;29;20033;-81
2021/12/27 09:25:25;;;;;;;28.33;17.03;;;4.90;99.90;;;;;;4851943;29;20037;-80
2021/12/27 09:27:52;;;;;;;29.35;17.38;;;4.90;99.90;;;;;;4823159;29;20041;-80
2021/12/27 09:30:20;;;;;;;28.53;17.40;;;4.90;99.90;;;;;;4836264;29;20171;-80
2021/12/27 09:32:48;;;;;;;32.38;18.85;;;4.90;99.90;;;;;;4868471;29;20506;-80
2021/12/27 09:35:15;;;;;;;36.30;21.30;;;5.00;99.90;;;;;;4825367;29;20037;-81
2021/12/27 09:37:41;;;;;;;24.57;16.43;;;5.00;99.90;;;;;;4869742;29;20040;-82
2021/12/27 09:40:09;;;;;;;39.60;20.87;;;5.00;99.90;;;;;;4838213;29;20050;-81
2021/12/27 09:42:35;;;;;;;32.87;18.80;;;5.00;99.90;;;;;;4870703;29;20029;-81
2021/12/27 09:45:05;;;;;;;35.88;21.08;;;5.00;99.90;;;;;;4825100;29;20045;-81
2021/12/27 09:47:33;;;;;;;38.15;21.85;;;5.00;99.90;;;;;;4853038;29;20584;-79
2021/12/27 09:50:00;;;;;;;31.03;18.57;;;5.10;99.90;;;;;;4867590;29;20029;-81
2021/12/27 09:52:28;;;;;;;35.70;19.87;;;5.10;99.90;;;;;;4870013;29;20049;-80
2021/12/27 09:54:54;;;;;;;35.23;20.43;;;5.10;99.90;;;;;;4866745;29;20040;-81
2021/12/27 09:57:21;;;;;;;30.83;18.45;;;5.20;99.90;;;;;;4865297;29;20033;-79
2021/12/27 09:59:49;;;;;;;36.10;20.85;;;5.20;99.90;;;;;;4826746;29;20048;-80
2021/12/27 10:02:17;;;;;;;33.07;20.70;;;5.30;99.90;;;;;;4850248;29;20033;-79
2021/12/27 10:04:45;;;;;;;33.47;19.95;;;5.30;99.90;;;;;;4853990;29;20053;-79
2021/12/27 10:07:21;;;;;;;33.10;20.23;;;5.40;99.90;;;;;;4865431;29;20056;-82
2021/12/27 10:09:54;;;;;;;25.73;16.43;;;5.40;99.90;;;;;;4855939;29;20050;-79
2021/12/27 10:12:24;;;;;;;32.08;18.95;;;5.40;99.90;;;;;;4853101;29;20044;-80
2021/12/27 10:15:03;;;;;;;27.58;17.20;;;5.40;99.90;;;;;;4849257;29;20070;-80
2021/12/27 10:17:31;;;;;;;30.58;19.42;;;5.50;99.90;;;;;;4866344;29;20372;-80
2021/12/27 10:20:20;;;;;;;24.20;15.70;;;5.60;99.90;;;;;;4852014;29;20040;-79
2021/12/27 10:22:53;;;;;;;23.48;16.35;;;5.70;99.90;;;;;;4848782;29;20032;-79
2021/12/27 10:25:28;;;;;;;26.08;16.50;;;5.80;99.90;;;;;;4867346;29;20469;-79
2021/12/27 10:27:57;;;;;;;25.55;17.00;;;5.80;99.90;;;;;;4852316;29;20048;-79
2021/12/27 10:30:32;;;;;;;22.48;16.17;;;5.90;99.90;;;;;;4851675;29;20033;-82
2021/12/27 10:33:13;;;;;;;27.65;18.08;;;5.90;99.90;;;;;;4850691;29;20048;-78
2021/12/27 10:35:43;;;;;;;24.52;16.05;;;6.00;99.90;;;;;;4866681;29;20037;-79
2021/12/27 10:38:25;;;;;;;29.35;18.88;;;6.00;99.90;;;;;;4854754;29;20037;-79
2021/12/27 10:40:57;;;;;;;29.42;18.30;;;6.00;99.90;;;;;;4873774;29;20472;-78
2021/12/27 10:43:50;;;;;;;28.38;18.52;;;6.10;99.90;;;;;;4870118;29;20040;-77
2021/12/27 10:46:18;;;;;;;26.33;16.63;;;6.10;99.90;;;;;;4872218;29;20042;-79
2021/12/27 10:48:47;;;;;;;27.23;17.20;;;6.20;99.90;;;;;;4850045;29;20042;-79
2021/12/27 10:51:14;;;;;;;22.92;15.10;;;6.20;99.90;;;;;;4842906;29;20036;-78
2021/12/27 10:53:52;;;;;;;26.85;18.25;;;6.30;99.90;;;;;;4856279;29;20033;-79
2021/12/27 10:56:22;;;;;;;24.38;15.10;;;6.30;99.90;;;;;;4850594;29;20062;-79
2021/12/27 10:58:51;;;;;;;25.45;16.95;;;6.40;99.90;;;;;;4855535;29;20045;-79
2021/12/27 11:01:20;;;;;;;25.13;16.80;;;6.40;99.90;;;;;;4874363;29;20021;-80
2021/12/27 11:03:58;;;;;;;23.50;16.02;;;6.50;99.90;;;;;;4854418;29;20045;-78
2021/12/27 11:06:27;;;;;;;28.77;18.60;;;6.50;99.90;;;;;;4839559;29;20040;-78
2021/12/27 11:08:55;;;;;;;24.55;16.33;;;6.60;99.90;;;;;;4871041;29;20500;-79
2021/12/27 11:11:24;;;;;;;22.75;15.73;;;6.60;99.90;;;;;;4856169;29;20409;-78
2021/12/27 11:13:53;;;;;;;25.58;16.83;;;6.50;99.90;;;;;;4853423;29;20037;-78
2021/12/27 11:16:20;;;;;;;25.02;16.70;;;6.50;99.90;;;;;;4855842;29;20055;-78
2021/12/27 11:18:47;;;;;;;26.73;18.30;;;6.40;99.90;;;;;;4857758;29;20021;-79
2021/12/27 11:21:19;;;;;;;24.08;17.02;;;6.40;99.90;;;;;;4856430;29;20500;-79
2021/12/27 11:23:51;;;;;;;21.45;14.77;;;6.30;99.90;;;;;;4855143;29;20513;-78
2021/12/27 11:26:24;;;;;;;21.73;14.38;;;6.30;99.90;;;;;;4851872;29;20037;-78
2021/12/27 11:28:51;;;;;;;24.30;15.30;;;6.20;99.90;;;;;;4852506;29;20037;-78
2021/12/27 11:31:27;;;;;;;21.35;15.02;;;6.30;99.90;;;;;;4856965;29;20052;-78
2021/12/27 11:33:58;;;;;;;21.92;13.20;;;6.30;99.90;;;;;;4841196;29;20381;-78
2021/12/27 11:36:36;;;;;;;19.15;13.88;;;6.40;99.90;;;;;;4869705;29;20029;-78
2021/12/27 11:39:22;;;;;;;21.80;14.30;;;6.50;99.90;;;;;;4840897;29;20062;-78
2021/12/27 11:41:59;;;;;;;21.80;15.98;;;6.70;99.90;;;;;;4852016;29;20033;-78
2021/12/27 11:44:45;;;;;;;22.33;15.05;;;6.80;99.90;;;;;;4847994;29;20024;-78
2021/12/27 11:47:21;;;;;;;21.13;14.90;;;6.80;99.90;;;;;;4855849;29;20048;-78
2021/12/27 11:49:55;;;;;;;19.17;14.18;;;6.90;99.90;;;;;;4870932;29;20025;-78
2021/12/27 11:52:23;;;;;;;19.52;13.95;;;6.90;99.90;;;;;;4848298;29;20148;-78
2021/12/27 11:54:59;;;;;;;17.35;13.27;;;6.90;99.90;;;;;;4857828;29;20040;-78
2021/12/27 11:57:52;;;;;;;22.58;14.63;;;7.00;99.90;;;;;;4868441;29;20399;-77
2021/12/27 12:00:18;;;;;;;20.58;13.10;;;7.10;99.90;;;;;;4862978;29;20021;-78
2021/12/27 12:02:48;;;;;;;21.27;14.00;;;7.20;99.90;;;;;;4837795;29;20841;-78
2021/12/27 12:05:44;;;;;;;18.98;13.90;;;7.20;99.90;;;;;;4853137;29;20041;-78
2021/12/27 12:08:13;;;;;;;19.33;13.88;;;7.30;99.90;;;;;;4874621;29;20534;-77
2021/12/27 12:11:00;;;;;;;22.70;15.05;;;7.30;99.90;;;;;;4871736;29;20053;-78
2021/12/27 12:13:37;;;;;;;22.02;13.57;;;7.30;99.90;;;;;;4865548;29;20417;-80
2021/12/27 12:16:07;;;;;;;20.75;14.27;;;7.40;99.90;;;;;;4843424;29;20425;-78
2021/12/27 12:18:41;;;;;;;19.02;14.30;;;7.40;99.90;;;;;;4847942;29;20493;-78
2021/12/27 12:21:33;;;;;;;18.77;13.13;;;7.40;99.90;;;;;;4839991;29;20049;-79
2021/12/27 12:24:07;;;;;;;20.00;14.45;;;7.50;99.90;;;;;;4864882;29;20449;-79
2021/12/27 12:27:01;;;;;;;19.80;13.52;;;7.50;99.90;;;;;;4864187;29;20053;-80
2021/12/27 12:29:44;;;;;;;18.10;13.43;;;7.50;99.90;;;;;;4872293;29;20046;-79
2021/12/27 12:32:12;;;;;;;18.15;13.07;;;7.50;99.90;;;;;;4837440;29;21001;-77
2021/12/27 12:34:40;;;;;;;19.27;13.25;;;7.60;99.90;;;;;;4832485;29;20021;-81
2021/12/27 12:37:12;;;;;;;20.17;14.45;;;7.60;99.90;;;;;;4839327;29;20045;-80
2021/12/27 12:39:43;;;;;;;21.57;15.00;;;7.70;99.90;;;;;;4851067;29;20104;-81
2021/12/27 12:42:17;;;;;;;19.15;14.32;;;7.60;99.90;;;;;;4854223;29;20289;-82
2021/12/27 12:44:59;;;;;;;18.63;13.73;;;7.60;99.90;;;;;;4866289;29;20052;-83
2021/12/27 12:47:28;;;;;;;18.63;13.02;;;7.60;99.90;;;;;;4842143;29;20579;-80
2021/12/27 12:49:55;;;;;;;19.05;13.35;;;7.60;99.90;;;;;;4868890;29;20033;-77